Hauptseite
METAR-TAF:

METAR-TAF

Flughäfen :

Flughafen Logroño

Logroño, Spanien

Breite: 42-27N, Länge: 002-20W, Höhe: 353 m

Beobachtung

Neuester Wetterbericht von vor 32 Minuten, um 02:30 UTC
Wind 4 kt aus West/Südwest
Temperatur 2°C
Luftfeuchtigkeit 100%
Luftdruck 1024 hPa
Sichtweite: 4900 m
feuchter Dunst

METAR: LELO 060230Z AUTO 25004KT 4900 BR NCD 02/02 Q1024

Zeit: 04:02 (03:02 UTC)

Prognose

Neuester Wetterbericht von vor 1 Stunde und 2 Minuten, um 02:00 UTC
Gültige Prognose vom 06 um 03 UTC bis 06 um 12 UTC
Wind 6 kt aus West
Sichtweite 10 km oder mehr
Leicht bewölkt in der Höhe von 2500 ft
Aufgelockert bewölkt in der Höhe von 3500 ft
Übergehend zu
vom 06 um 09 UTC bis 06 um 11 UTC
Wind 4 kt aus unterschiedlichen Richtungen

TAF: LELO 060200Z 0603/0612 27006KT 9999 FEW025 SCT035 BECMG 0609/0611 VRB04KT

Wetterbeobachtungen und Prognosen von mehr als 4000 Flughäfen (METAR und TAF Bericht).

Die verfügbaren Stationen werden durch gelbe und rote Markierungen auf der Karte dargestellt.

Führen Sie die Maus auf sie, um den Namen der Station zu sehen.

Darauf klicken, um die Beobachtung von Wetterbeobachtungen und Prognosen zu sehen.

Um die Karte zu ändern : klicken Sie auf den grünen Tasten mit einem schwarzen Kreuz Zum Vergrößern, auf den grünen Button mit einem Gedankenstrich zu verkleinern, oder auf die grünen Pfeile für benachbarte Karten.


METAR-TAF: